Terminal Aerodrome Forecast
Issued by NWS

Home | Current Version | Previous Version | Text Only | Print | Product List | Glossary On
Versions: 1 2 3 4 5 6 7 8 9 10 11 12 13
840
FTUS46 KPDT 202320
TAFYKM
TAF
KYKM 202320Z 2100/2124 23014G25KT P6SM SCT200
     FM210200 27005KT P6SM OVC200
     FM210900 27005KT P6SM SCT080 OVC150
     FM211300 27005KT 6SM -RA BR BKN040 OVC060
     FM211800 VRB03KT 4SM RA BKN025 OVC035=

USA.gov is the U.S. government's official web portal to all federal, state and local government web resources and services.